Time,TemperatureF,DewpointF,PressureIn,WindDirection,WindDirectionDegrees,WindSpeedMPH,WindSpeedGustMPH,Humidity,HourlyPrecipIn,Conditions,Clouds,dailyrainin,SoftwareType,DateUTC
2013-08-10 00:02:00,54.0,51.0,30.08,NW,321,0.0,-999.0,88,-99.99,,,-99.99,,2013-08-10 04:02:00,
2013-08-10 00:12:00,54.0,51.0,30.08,NW,321,0.0,-999.0,88,-99.99,,,-99.99,,2013-08-10 04:12:00,
2013-08-10 00:22:00,52.0,49.0,30.08,NW,321,0.0,-999.0,89,-99.99,,,-99.99,,2013-08-10 04:22:00,
2013-08-10 00:32:00,51.0,49.0,30.09,NW,321,0.0,-999.0,92,-99.99,,,-99.99,,2013-08-10 04:32:00,
2013-08-10 00:43:00,51.0,49.0,30.09,NW,321,0.0,-999.0,92,-99.99,,,-99.99,,2013-08-10 04:43:00,
2013-08-10 00:53:00,51.0,49.0,30.09,NW,321,0.0,-999.0,93,-99.99,,,-99.99,,2013-08-10 04:53:00,
2013-08-10 01:02:00,51.0,49.0,30.09,NW,321,0.0,-999.0,92,-99.99,,,-99.99,,2013-08-10 05:02:00,
2013-08-10 01:11:00,51.0,49.0,30.09,NW,321,0.0,-999.0,92,-99.99,,,-99.99,,2013-08-10 05:11:00,
2013-08-10 01:22:00,51.0,49.0,30.10,NW,321,0.0,-999.0,92,-99.99,,,-99.99,,2013-08-10 05:22:00,
2013-08-10 01:32:00,51.0,49.0,30.10,NW,321,0.0,-999.0,92,-99.99,,,-99.99,,2013-08-10 05:32:00,
2013-08-10 01:43:00,51.0,49.0,30.10,NW,321,0.0,-999.0,92,-99.99,,,-99.99,,2013-08-10 05:43:00,
2013-08-10 01:52:00,51.0,49.0,30.10,NW,321,0.0,-999.0,92,-99.99,,,-99.99,,2013-08-10 05:52:00,
2013-08-10 02:02:00,51.0,49.0,30.11,NW,320,0.0,-999.0,92,-99.99,,,-99.99,,2013-08-10 06:02:00,
2013-08-10 02:11:00,51.0,49.0,30.11,NW,320,0.0,-999.0,92,-99.99,,,-99.99,,2013-08-10 06:11:00,
2013-08-10 02:22:00,51.0,49.0,30.11,NW,320,0.0,-999.0,92,-99.99,,,-99.99,,2013-08-10 06:22:00,
2013-08-10 02:32:00,51.0,49.0,30.11,NW,320,0.0,-999.0,92,-99.99,,,-99.99,,2013-08-10 06:32:00,
2013-08-10 02:44:00,51.0,49.0,30.11,NW,320,0.0,-999.0,92,-99.99,,,-99.99,,2013-08-10 06:44:00,
2013-08-10 02:53:00,51.0,48.0,30.11,NW,320,0.0,-999.0,91,-99.99,,,-99.99,,2013-08-10 06:53:00,
2013-08-10 03:02:00,51.0,49.0,30.11,NW,320,0.0,-999.0,92,-99.99,,,-99.99,,2013-08-10 07:02:00,
2013-08-10 03:12:00,51.0,49.0,30.11,NW,320,0.0,-999.0,92,-99.99,,,-99.99,,2013-08-10 07:12:00,
2013-08-10 03:22:00,51.0,49.0,30.11,NW,320,0.0,-999.0,92,-99.99,,,-99.99,,2013-08-10 07:22:00,
2013-08-10 03:33:00,51.0,49.0,30.11,NW,323,1.0,-999.0,92,-99.99,,,-99.99,,2013-08-10 07:33:00,
2013-08-10 03:43:00,51.0,49.0,30.11,NW,323,1.0,-999.0,92,-99.99,,,-99.99,,2013-08-10 07:43:00,
2013-08-10 03:52:00,52.0,50.0,30.12,NW,322,0.0,-999.0,92,-99.99,,,-99.99,,2013-08-10 07:52:00,
2013-08-10 04:01:00,51.0,49.0,30.12,NW,315,1.0,-999.0,92,-99.99,,,-99.99,,2013-08-10 08:01:00,
2013-08-10 04:12:00,51.0,49.0,30.12,NW,315,1.0,-999.0,92,-99.99,,,-99.99,,2013-08-10 08:12:00,
2013-08-10 04:22:00,51.0,49.0,30.11,NW,315,0.0,-999.0,92,-99.99,,,-99.99,,2013-08-10 08:22:00,
2013-08-10 04:32:00,51.0,48.0,30.12,NW,315,0.0,-999.0,91,-99.99,,,-99.99,,2013-08-10 08:32:00,
2013-08-10 04:43:00,51.0,48.0,30.12,NW,315,0.0,-999.0,91,-99.99,,,-99.99,,2013-08-10 08:43:00,
2013-08-10 04:53:00,49.0,46.0,30.12,NW,315,0.0,-999.0,89,-99.99,,,-99.99,,2013-08-10 08:53:00,
2013-08-10 05:02:00,48.0,45.0,30.12,NW,315,0.0,-999.0,91,-99.99,,,-99.99,,2013-08-10 09:02:00,
2013-08-10 05:12:00,48.0,45.0,30.12,NW,315,0.0,-999.0,91,-99.99,,,-99.99,,2013-08-10 09:12:00,
2013-08-10 05:22:00,47.0,45.0,30.12,NW,315,0.0,-999.0,92,-99.99,,,-99.99,,2013-08-10 09:22:00,
2013-08-10 05:32:00,46.0,44.0,30.13,NW,315,0.0,-999.0,92,-99.99,,,-99.99,,2013-08-10 09:32:00,
2013-08-10 05:43:00,46.0,44.0,30.13,NW,315,0.0,-999.0,92,-99.99,,,-99.99,,2013-08-10 09:43:00,
2013-08-10 05:52:00,46.0,44.0,30.14,NW,315,0.0,-999.0,92,-99.99,,,-99.99,,2013-08-10 09:52:00,
2013-08-10 06:02:00,45.0,43.0,30.14,NW,315,0.0,-999.0,93,-99.99,,,-99.99,,2013-08-10 10:02:00,
2013-08-10 06:11:00,45.0,43.0,30.14,NW,315,0.0,-999.0,93,-99.99,,,-99.99,,2013-08-10 10:11:00,
2013-08-10 06:22:00,45.0,43.0,30.14,NW,315,0.0,-999.0,94,-99.99,,,-99.99,,2013-08-10 10:22:00,
2013-08-10 06:33:00,46.0,45.0,30.15,NW,315,0.0,-999.0,95,-99.99,,,-99.99,,2013-08-10 10:33:00,
2013-08-10 06:44:00,46.0,45.0,30.15,NW,315,0.0,-999.0,95,-99.99,,,-99.99,,2013-08-10 10:44:00,
2013-08-10 06:53:00,46.0,45.0,30.15,NW,315,0.0,-999.0,95,-99.99,,,-99.99,,2013-08-10 10:53:00,
2013-08-10 07:02:00,46.0,44.0,30.16,NW,315,0.0,-999.0,94,-99.99,,,-99.99,,2013-08-10 11:02:00,
2013-08-10 07:11:00,46.0,44.0,30.16,NW,315,0.0,-999.0,94,-99.99,,,-99.99,,2013-08-10 11:11:00,
2013-08-10 07:22:00,45.0,44.0,30.16,NW,315,0.0,-999.0,95,-99.99,,,-99.99,,2013-08-10 11:22:00,
2013-08-10 07:33:00,45.0,44.0,30.16,NW,315,0.0,-999.0,95,-99.99,,,-99.99,,2013-08-10 11:33:00,
2013-08-10 07:43:00,45.0,44.0,30.16,NW,315,0.0,-999.0,95,-99.99,,,-99.99,,2013-08-10 11:43:00,
2013-08-10 07:53:00,45.0,44.0,30.16,NW,315,0.0,-999.0,95,-99.99,,,-99.99,,2013-08-10 11:53:00,
2013-08-10 08:01:00,46.0,45.0,30.17,NW,315,0.0,-999.0,96,-99.99,,,-99.99,,2013-08-10 12:01:00,
2013-08-10 08:11:00,46.0,45.0,30.17,NW,315,0.0,-999.0,96,-99.99,,,-99.99,,2013-08-10 12:11:00,
2013-08-10 08:22:00,48.0,47.0,30.16,NW,315,0.0,-999.0,97,-99.99,,,-99.99,,2013-08-10 12:22:00,
2013-08-10 08:32:00,52.0,51.0,30.17,NW,315,0.0,-999.0,97,-99.99,,,-99.99,,2013-08-10 12:32:00,
2013-08-10 08:42:00,52.0,51.0,30.17,NW,315,0.0,-999.0,97,-99.99,,,-99.99,,2013-08-10 12:42:00,
2013-08-10 08:52:00,54.0,52.0,30.17,NW,315,0.0,-999.0,93,-99.99,,,-99.99,,2013-08-10 12:52:00,
2013-08-10 09:01:00,56.0,52.0,30.17,NW,315,0.0,-999.0,88,-99.99,,,-99.99,,2013-08-10 13:01:00,
2013-08-10 09:11:00,56.0,52.0,30.17,NW,315,0.0,-999.0,88,-99.99,,,-99.99,,2013-08-10 13:11:00,
2013-08-10 09:21:00,57.0,53.0,30.17,NW,307,0.0,-999.0,85,-99.99,,,-99.99,,2013-08-10 13:21:00,
2013-08-10 09:32:00,59.0,53.0,30.17,NW,308,0.0,-999.0,81,-99.99,,,-99.99,,2013-08-10 13:32:00,
2013-08-10 09:43:00,59.0,53.0,30.17,NW,308,0.0,-999.0,81,-99.99,,,-99.99,,2013-08-10 13:43:00,
2013-08-10 09:52:00,61.0,53.0,30.17,NW,310,1.0,-999.0,76,-99.99,,,-99.99,,2013-08-10 13:52:00,
2013-08-10 10:02:00,62.0,52.0,30.17,NNE,15,1.0,-999.0,69,-99.99,,,-99.99,,2013-08-10 14:02:00,
2013-08-10 10:12:00,62.0,52.0,30.17,NNE,15,1.0,-999.0,69,-99.99,,,-99.99,,2013-08-10 14:12:00,
2013-08-10 10:22:00,63.0,50.0,30.18,North,360,2.0,-999.0,62,-99.99,,,-99.99,,2013-08-10 14:22:00,
2013-08-10 10:32:00,64.0,51.0,30.18,NW,315,2.0,-999.0,63,-99.99,,,-99.99,,2013-08-10 14:32:00,
2013-08-10 10:43:00,64.0,51.0,30.18,NW,315,2.0,-999.0,63,-99.99,,,-99.99,,2013-08-10 14:43:00,
2013-08-10 10:53:00,65.0,51.0,30.17,North,5,1.0,-999.0,61,-99.99,,,-99.99,,2013-08-10 14:53:00,
2013-08-10 11:02:00,66.0,52.0,30.17,ENE,68,0.0,-999.0,60,-99.99,,,-99.99,,2013-08-10 15:02:00,
2013-08-10 11:12:00,66.0,52.0,30.17,ENE,68,0.0,-999.0,60,-99.99,,,-99.99,,2013-08-10 15:12:00,
2013-08-10 11:22:00,66.0,51.0,30.17,WSW,248,0.0,-999.0,59,-99.99,,,-99.99,,2013-08-10 15:22:00,
2013-08-10 11:33:00,66.0,52.0,30.17,WSW,254,0.0,-999.0,60,-99.99,,,-99.99,,2013-08-10 15:33:00,
2013-08-10 11:43:00,66.0,52.0,30.17,WSW,254,0.0,-999.0,60,-99.99,,,-99.99,,2013-08-10 15:43:00,
2013-08-10 11:52:00,67.0,51.0,30.17,North,360,2.0,-999.0,57,-99.99,,,-99.99,,2013-08-10 15:52:00,
2013-08-10 12:01:00,66.0,51.0,30.17,NNW,333,2.0,-999.0,58,-99.99,,,-99.99,,2013-08-10 16:01:00,
2013-08-10 12:11:00,66.0,51.0,30.17,NNW,333,2.0,-999.0,58,-99.99,,,-99.99,,2013-08-10 16:11:00,
2013-08-10 12:22:00,67.0,51.0,30.17,North,5,2.0,-999.0,56,-99.99,,,-99.99,,2013-08-10 16:22:00,
2013-08-10 12:32:00,66.0,50.0,30.17,NNW,328,3.0,-999.0,56,-99.99,,,-99.99,,2013-08-10 16:32:00,
2013-08-10 12:43:00,66.0,50.0,30.17,NNW,328,3.0,-999.0,56,-99.99,,,-99.99,,2013-08-10 16:43:00,
2013-08-10 12:53:00,67.0,51.0,30.17,SSW,206,1.0,-999.0,57,-99.99,,,-99.99,,2013-08-10 16:53:00,
2013-08-10 13:02:00,68.0,52.0,30.17,North,360,3.0,-999.0,56,-99.99,,,-99.99,,2013-08-10 17:02:00,
2013-08-10 13:12:00,68.0,52.0,30.17,North,360,3.0,-999.0,56,-99.99,,,-99.99,,2013-08-10 17:12:00,
2013-08-10 13:22:00,67.0,51.0,30.18,NW,318,2.0,-999.0,56,-99.99,,,-99.99,,2013-08-10 17:22:00,
2013-08-10 13:33:00,68.0,50.0,30.17,NNW,348,2.0,-999.0,53,-99.99,,,-99.99,,2013-08-10 17:33:00,
2013-08-10 13:43:00,68.0,50.0,30.17,NNW,348,2.0,-999.0,53,-99.99,,,-99.99,,2013-08-10 17:43:00,
2013-08-10 13:52:00,67.0,50.0,30.17,WNW,302,1.0,-999.0,54,-99.99,,,-99.99,,2013-08-10 17:52:00,
2013-08-10 14:01:00,68.0,50.0,30.17,SSW,211,1.0,-999.0,53,-99.99,,,-99.99,,2013-08-10 18:01:00,
2013-08-10 14:11:00,68.0,50.0,30.17,SSW,211,1.0,-999.0,53,-99.99,,,-99.99,,2013-08-10 18:11:00,
2013-08-10 14:23:00,69.0,49.0,30.16,NNE,31,3.0,-999.0,49,-99.99,,,-99.99,,2013-08-10 18:23:00,
2013-08-10 14:32:00,69.0,49.0,30.17,WNW,302,2.0,-999.0,49,-99.99,,,-99.99,,2013-08-10 18:32:00,
2013-08-10 14:44:00,69.0,49.0,30.17,WNW,302,2.0,-999.0,49,-99.99,,,-99.99,,2013-08-10 18:44:00,
2013-08-10 14:52:00,68.0,49.0,30.16,NW,309,2.0,-999.0,50,-99.99,,,-99.99,,2013-08-10 18:52:00,
2013-08-10 15:02:00,70.0,50.0,30.16,NW,308,1.0,-999.0,49,-99.99,,,-99.99,,2013-08-10 19:02:00,
2013-08-10 15:11:00,70.0,50.0,30.16,NW,308,1.0,-999.0,49,-99.99,,,-99.99,,2013-08-10 19:11:00,
2013-08-10 15:22:00,70.0,50.0,30.17,SW,232,2.0,-999.0,49,-99.99,,,-99.99,,2013-08-10 19:22:00,
2013-08-10 15:33:00,70.0,49.0,30.16,North,9,2.0,-999.0,48,-99.99,,,-99.99,,2013-08-10 19:33:00,
2013-08-10 15:44:00,70.0,49.0,30.16,North,9,2.0,-999.0,48,-99.99,,,-99.99,,2013-08-10 19:44:00,
2013-08-10 15:53:00,70.0,49.0,30.16,North,10,2.0,-999.0,47,-99.99,,,-99.99,,2013-08-10 19:53:00,
2013-08-10 16:02:00,70.0,48.0,30.16,WNW,300,1.0,-999.0,45,-99.99,,,-99.99,,2013-08-10 20:02:00,
2013-08-10 16:12:00,70.0,48.0,30.16,WNW,300,1.0,-999.0,45,-99.99,,,-99.99,,2013-08-10 20:12:00,
2013-08-10 16:22:00,71.0,50.0,30.15,SSW,209,0.0,-999.0,48,-99.99,,,-99.99,,2013-08-10 20:22:00,
2013-08-10 16:33:00,71.0,51.0,30.16,SW,221,0.0,-999.0,49,-99.99,,,-99.99,,2013-08-10 20:33:00,
2013-08-10 16:43:00,71.0,51.0,30.16,SW,221,0.0,-999.0,49,-99.99,,,-99.99,,2013-08-10 20:43:00,
2013-08-10 16:53:00,70.0,49.0,30.15,NW,315,1.0,-999.0,47,-99.99,,,-99.99,,2013-08-10 20:53:00,
2013-08-10 17:02:00,71.0,49.0,30.16,West,265,0.0,-999.0,45,-99.99,,,-99.99,,2013-08-10 21:02:00,
2013-08-10 17:12:00,71.0,49.0,30.16,West,265,0.0,-999.0,45,-99.99,,,-99.99,,2013-08-10 21:12:00,
2013-08-10 17:22:00,70.0,49.0,30.15,North,5,2.0,-999.0,48,-99.99,,,-99.99,,2013-08-10 21:22:00,
2013-08-10 17:32:00,72.0,51.0,30.14,NNE,15,2.0,-999.0,47,-99.99,,,-99.99,,2013-08-10 21:32:00,
2013-08-10 17:42:00,72.0,51.0,30.14,NNE,15,2.0,-999.0,47,-99.99,,,-99.99,,2013-08-10 21:42:00,
2013-08-10 17:52:00,72.0,50.0,30.14,West,277,1.0,-999.0,46,-99.99,,,-99.99,,2013-08-10 21:52:00,
2013-08-10 18:01:00,71.0,51.0,30.14,NW,313,1.0,-999.0,49,-99.99,,,-99.99,,2013-08-10 22:01:00,
2013-08-10 18:11:00,71.0,51.0,30.14,NW,313,1.0,-999.0,49,-99.99,,,-99.99,,2013-08-10 22:11:00,
2013-08-10 18:21:00,70.0,55.0,30.14,NNE,24,1.0,-999.0,60,-99.99,,,-99.99,,2013-08-10 22:21:00,
2013-08-10 18:32:00,70.0,57.0,30.13,ENE,60,1.0,-999.0,63,-99.99,,,-99.99,,2013-08-10 22:32:00,
2013-08-10 18:43:00,70.0,57.0,30.13,ENE,60,1.0,-999.0,63,-99.99,,,-99.99,,2013-08-10 22:43:00,
2013-08-10 18:52:00,70.0,57.0,30.13,ENE,60,1.0,-999.0,63,-99.99,,,-99.99,,2013-08-10 22:52:00,
2013-08-10 19:01:00,69.0,57.0,30.13,NE,39,2.0,-999.0,65,-99.99,,,-99.99,,2013-08-10 23:01:00,
2013-08-10 19:12:00,69.0,57.0,30.13,NE,39,2.0,-999.0,65,-99.99,,,-99.99,,2013-08-10 23:12:00,
2013-08-10 19:22:00,68.0,56.0,30.13,NE,51,1.0,-999.0,66,-99.99,,,-99.99,,2013-08-10 23:22:00,
2013-08-10 19:32:00,67.0,56.0,30.13,NE,55,3.0,-999.0,68,-99.99,,,-99.99,,2013-08-10 23:32:00,
2013-08-10 19:43:00,67.0,56.0,30.13,NE,55,3.0,-999.0,68,-99.99,,,-99.99,,2013-08-10 23:43:00,
2013-08-10 19:53:00,67.0,56.0,30.13,NE,54,1.0,-999.0,69,-99.99,,,-99.99,,2013-08-10 23:53:00,
2013-08-10 20:02:00,66.0,56.0,30.13,NE,44,1.0,-999.0,70,-99.99,,,-99.99,,2013-08-11 00:02:00,
2013-08-10 20:11:00,66.0,56.0,30.13,NE,44,1.0,-999.0,70,-99.99,,,-99.99,,2013-08-11 00:11:00,
2013-08-10 20:22:00,66.0,56.0,30.12,ENE,78,1.0,-999.0,71,-99.99,,,-99.99,,2013-08-11 00:22:00,
2013-08-10 20:32:00,65.0,56.0,30.13,ENE,76,1.0,-999.0,72,-99.99,,,-99.99,,2013-08-11 00:32:00,
2013-08-10 20:42:00,65.0,56.0,30.13,ENE,76,1.0,-999.0,72,-99.99,,,-99.99,,2013-08-11 00:42:00,
2013-08-10 20:52:00,65.0,56.0,30.12,ENE,77,0.0,-999.0,73,-99.99,,,-99.99,,2013-08-11 00:52:00,
2013-08-10 21:01:00,65.0,56.0,30.12,ENE,77,0.0,-999.0,73,-99.99,,,-99.99,,2013-08-11 01:01:00,
2013-08-10 21:11:00,65.0,56.0,30.12,ENE,77,0.0,-999.0,73,-99.99,,,-99.99,,2013-08-11 01:11:00,
2013-08-10 21:22:00,63.0,56.0,30.12,ENE,77,0.0,-999.0,77,-99.99,,,-99.99,,2013-08-11 01:22:00,
2013-08-10 21:32:00,62.0,55.0,30.13,ENE,77,0.0,-999.0,79,-99.99,,,-99.99,,2013-08-11 01:32:00,
2013-08-10 21:43:00,62.0,55.0,30.13,ENE,77,0.0,-999.0,79,-99.99,,,-99.99,,2013-08-11 01:43:00,
2013-08-10 21:54:00,61.0,55.0,30.13,ENE,77,0.0,-999.0,81,-99.99,,,-99.99,,2013-08-11 01:54:00,
2013-08-10 22:02:00,60.0,55.0,30.13,ENE,77,0.0,-999.0,83,-99.99,,,-99.99,,2013-08-11 02:02:00,
2013-08-10 22:11:00,60.0,55.0,30.13,ENE,77,0.0,-999.0,83,-99.99,,,-99.99,,2013-08-11 02:11:00,
2013-08-10 22:22:00,59.0,55.0,30.13,ENE,77,0.0,-999.0,86,-99.99,,,-99.99,,2013-08-11 02:22:00,
2013-08-10 22:32:00,58.0,54.0,30.14,ENE,77,0.0,-999.0,87,-99.99,,,-99.99,,2013-08-11 02:32:00,
2013-08-10 22:43:00,58.0,54.0,30.14,ENE,77,0.0,-999.0,87,-99.99,,,-99.99,,2013-08-11 02:43:00,
2013-08-10 22:57:00,57.0,53.0,30.13,ENE,77,0.0,-999.0,88,-99.99,,,-99.99,,2013-08-11 02:57:00,
2013-08-10 23:05:00,56.0,53.0,30.13,ENE,77,0.0,-999.0,89,-99.99,,,-99.99,,2013-08-11 03:05:00,
2013-08-10 23:17:00,56.0,53.0,30.13,ENE,77,0.0,-999.0,89,-99.99,,,-99.99,,2013-08-11 03:17:00,
2013-08-10 23:27:00,55.0,52.0,30.13,ENE,77,0.0,-999.0,91,-99.99,,,-99.99,,2013-08-11 03:27:00,
2013-08-10 23:35:00,55.0,52.0,30.13,ENE,77,0.0,-999.0,91,-99.99,,,-99.99,,2013-08-11 03:35:00,
2013-08-10 23:44:00,55.0,52.0,30.13,ENE,77,0.0,-999.0,91,-99.99,,,-99.99,,2013-08-11 03:44:00,
2013-08-10 23:56:00,54.0,51.0,30.12,ENE,77,0.0,-999.0,91,-99.99,,,-99.99,,2013-08-11 03:56:00,